createdAt,value
2022-11-08T00:02:27.140Z,25.48
2022-11-08T00:04:54.283Z,43.13
2022-11-08T00:07:40.149Z,31.83
2022-11-08T00:10:26.075Z,41.55
2022-11-08T00:13:11.655Z,56.55
2022-11-08T00:15:39.105Z,46.42
2022-11-08T00:18:07.513Z,51.70
2022-11-08T00:20:34.960Z,54.65
2022-11-08T00:23:02.315Z,59.08
2022-11-08T00:25:29.322Z,33.78
2022-11-08T00:27:59.399Z,42.78
2022-11-08T00:30:26.314Z,58.90
2022-11-08T00:32:53.373Z,53.40
2022-11-08T00:35:20.359Z,28.23
2022-11-08T00:37:47.312Z,48.22
2022-11-08T00:40:14.387Z,45.53
2022-11-08T00:42:41.344Z,20.20
2022-11-08T00:45:08.605Z,56.30
2022-11-08T00:47:35.527Z,61.92
2022-11-08T00:50:02.411Z,49.80
2022-11-08T00:52:30.942Z,41.72
2022-11-08T00:54:58.334Z,30.83
2022-11-08T00:57:41.116Z,22.20
2022-11-08T01:00:13.147Z,54.72
2022-11-08T01:02:40.258Z,58.28
2022-11-08T01:05:07.614Z,43.95
2022-11-08T01:07:34.700Z,36.03
2022-11-08T01:10:04.611Z,43.85
2022-11-08T01:12:31.667Z,48.00
2022-11-08T01:14:58.689Z,42.83
2022-11-08T01:17:25.727Z,59.63
2022-11-08T01:19:52.665Z,46.75
2022-11-08T01:22:19.588Z,53.92
2022-11-08T01:24:46.592Z,44.03
2022-11-08T01:27:13.593Z,41.58
2022-11-08T01:29:41.159Z,34.53
2022-11-08T01:32:08.151Z,40.90
2022-11-08T01:34:35.115Z,49.28
2022-11-08T01:37:02.085Z,47.63
2022-11-08T01:39:33.010Z,36.05
2022-11-08T01:42:00.033Z,54.33
2022-11-08T01:44:26.974Z,34.42
2022-11-08T01:46:53.866Z,27.23
2022-11-08T01:49:32.966Z,27.23
2022-11-08T01:52:08.286Z,32.22
2022-11-08T01:54:38.617Z,35.92
2022-11-08T01:57:09.058Z,31.25
2022-11-08T01:59:40.079Z,32.13
2022-11-08T02:02:08.836Z,28.25
2022-11-08T02:04:36.883Z,44.47
2022-11-08T02:07:06.806Z,40.38
2022-11-08T02:09:37.764Z,56.58
2022-11-08T02:12:06.938Z,33.67
2022-11-08T02:14:34.606Z,38.55
2022-11-08T02:17:01.665Z,63.15
2022-11-08T02:19:41.971Z,36.95
2022-11-08T02:22:17.051Z,55.00
2022-11-08T02:24:44.255Z,49.72
2022-11-08T02:27:12.592Z,31.70
2022-11-08T02:29:39.794Z,33.28
2022-11-08T02:32:07.407Z,53.42
2022-11-08T02:34:45.300Z,34.28
2022-11-08T02:37:15.747Z,40.60
2022-11-08T02:42:18.722Z,32.53
2022-11-08T02:44:48.813Z,40.83
2022-11-08T02:47:16.463Z,26.45
2022-11-08T02:49:43.866Z,50.85
2022-11-08T02:52:11.213Z,41.72
2022-11-08T02:54:38.341Z,51.72
2022-11-08T02:57:05.309Z,48.05
2022-11-08T02:59:32.315Z,30.48
2022-11-08T03:01:59.546Z,31.98
2022-11-08T03:04:26.691Z,54.75
2022-11-08T03:06:53.681Z,40.25
2022-11-08T03:09:20.580Z,32.50
2022-11-08T03:11:47.516Z,41.55
2022-11-08T03:14:14.469Z,30.00
2022-11-08T03:16:41.363Z,50.95
2022-11-08T03:19:08.309Z,27.05
2022-11-08T03:21:36.702Z,39.25
2022-11-08T03:24:05.035Z,48.72
2022-11-08T03:26:33.117Z,41.45
2022-11-08T03:29:00.091Z,61.97
2022-11-08T03:31:27.741Z,40.90
2022-11-08T03:33:54.596Z,26.35
2022-11-08T03:36:21.598Z,33.55
2022-11-08T03:38:48.631Z,46.72
2022-11-08T03:41:15.605Z,54.05
2022-11-08T03:43:42.545Z,60.17
2022-11-08T03:46:09.623Z,26.88
2022-11-08T03:48:36.543Z,47.08
2022-11-08T03:51:03.718Z,37.53
2022-11-08T03:53:30.638Z,74.78
2022-11-08T03:56:00.125Z,33.58
2022-11-08T03:58:27.472Z,38.97
2022-11-08T04:00:54.565Z,35.22
2022-11-08T04:03:21.579Z,31.60
2022-11-08T04:05:48.484Z,43.60
2022-11-08T04:08:15.902Z,20.80
2022-11-08T04:10:43.151Z,38.42
2022-11-08T04:13:28.812Z,24.58
2022-11-08T04:15:56.522Z,56.75
2022-11-08T04:18:42.249Z,42.80
2022-11-08T04:21:19.956Z,37.20
2022-11-08T04:23:48.697Z,48.13
2022-11-08T04:26:16.152Z,27.05
2022-11-08T04:28:43.790Z,44.40
2022-11-08T04:31:14.564Z,33.45
2022-11-08T04:33:42.043Z,30.02
2022-11-08T04:36:12.287Z,63.92
2022-11-08T04:41:14.744Z,53.80
2022-11-08T04:43:42.631Z,31.08
2022-11-08T04:46:12.135Z,46.45
2022-11-08T04:48:39.626Z,51.10
2022-11-08T04:51:19.112Z,58.28
2022-11-08T04:53:46.547Z,41.08
2022-11-08T04:56:19.775Z,43.17
2022-11-08T04:58:49.477Z,57.03
2022-11-08T05:01:19.226Z,36.63
2022-11-08T05:03:47.941Z,38.22
2022-11-08T05:06:18.842Z,27.30
2022-11-08T05:08:45.844Z,47.78
2022-11-08T05:11:24.696Z,71.60
2022-11-08T05:13:52.567Z,39.72
2022-11-08T05:16:22.666Z,30.42
2022-11-08T05:18:50.487Z,50.33
2022-11-08T05:21:57.869Z,35.13
2022-11-08T05:24:24.776Z,27.27
2022-11-08T05:26:51.764Z,35.72
2022-11-08T05:29:18.733Z,45.58
2022-11-08T05:31:45.820Z,38.92
2022-11-08T05:34:12.889Z,54.38
2022-11-08T05:36:39.915Z,27.42
2022-11-08T05:39:06.930Z,31.30
2022-11-08T05:41:33.854Z,32.13
2022-11-08T05:44:00.830Z,25.83
2022-11-08T05:46:27.803Z,62.92
2022-11-08T05:48:54.994Z,22.98
2022-11-08T05:51:21.992Z,34.55
2022-11-08T05:53:49.203Z,43.40
2022-11-08T05:56:17.220Z,55.50
2022-11-08T05:58:44.273Z,36.13
2022-11-08T06:01:18.717Z,29.40
2022-11-08T06:03:46.948Z,46.28
2022-11-08T06:06:16.333Z,35.55
2022-11-08T06:08:48.976Z,30.67
2022-11-08T06:11:21.811Z,25.40
2022-11-08T06:13:49.656Z,33.08
2022-11-08T06:16:17.964Z,40.45
2022-11-08T06:18:45.285Z,28.90
2022-11-08T06:21:14.358Z,54.40
2022-11-08T06:23:41.779Z,31.92
2022-11-08T06:26:09.544Z,34.90
2022-11-08T06:28:36.932Z,45.53
2022-11-08T06:31:05.026Z,46.22
2022-11-08T06:33:32.469Z,24.50
2022-11-08T06:35:59.620Z,40.05
2022-11-08T06:38:26.661Z,39.72
2022-11-08T06:40:53.709Z,36.10
2022-11-08T06:43:21.068Z,43.95
2022-11-08T06:45:48.387Z,45.67
2022-11-08T06:48:15.454Z,26.98
2022-11-08T06:50:42.924Z,28.35
2022-11-08T06:53:12.731Z,37.97
2022-11-08T06:55:39.894Z,60.60
2022-11-08T06:58:06.935Z,51.30
2022-11-08T07:00:33.983Z,40.00
2022-11-08T07:03:03.707Z,24.95
2022-11-08T07:05:32.964Z,53.45
2022-11-08T07:08:01.613Z,47.05
2022-11-08T07:10:31.183Z,38.38
2022-11-08T07:13:05.860Z,31.08
2022-11-08T07:15:34.884Z,56.05
2022-11-08T07:18:07.330Z,22.52
2022-11-08T07:20:34.636Z,35.70
2022-11-08T07:23:01.701Z,52.55
2022-11-08T07:25:29.801Z,35.15
2022-11-08T07:27:58.271Z,39.70
2022-11-08T07:30:26.079Z,46.22
2022-11-08T07:32:53.238Z,52.05
2022-11-08T07:35:20.247Z,30.70
2022-11-08T07:37:47.275Z,44.97
2022-11-08T07:40:14.511Z,45.40
2022-11-08T07:43:09.966Z,42.67
2022-11-08T07:45:29.511Z,32.35
2022-11-08T07:48:03.358Z,29.85
2022-11-08T07:50:33.209Z,45.83
2022-11-08T07:53:00.270Z,44.53
2022-11-08T07:55:27.629Z,38.00
2022-11-08T07:58:01.487Z,20.70
2022-11-08T08:00:32.591Z,25.27
2022-11-08T08:03:00.919Z,48.10
2022-11-08T08:05:30.125Z,44.97
2022-11-08T08:07:58.197Z,36.72
2022-11-08T08:10:26.448Z,26.48
2022-11-08T08:12:53.492Z,17.83
2022-11-08T08:15:20.592Z,36.25
2022-11-08T08:17:47.585Z,43.40
2022-11-08T08:20:14.887Z,42.92
2022-11-08T08:22:50.086Z,23.58
2022-11-08T08:25:18.069Z,33.85
2022-11-08T08:27:52.619Z,28.90
2022-11-08T08:30:20.242Z,32.03
2022-11-08T08:33:02.185Z,34.30
2022-11-08T08:35:37.076Z,34.17
2022-11-08T08:38:05.778Z,20.88
2022-11-08T08:40:34.046Z,32.35
2022-11-08T08:43:01.447Z,31.98
2022-11-08T08:45:28.561Z,37.35
2022-11-08T08:47:57.361Z,17.67
2022-11-08T08:50:26.111Z,17.58
2022-11-08T08:53:01.427Z,37.10
2022-11-08T08:55:28.675Z,23.50
2022-11-08T08:57:56.217Z,27.25
2022-11-08T09:03:12.185Z,24.10
2022-11-08T09:05:41.967Z,20.98
2022-11-08T09:08:08.882Z,26.60
2022-11-08T09:10:36.018Z,24.02
2022-11-08T09:13:04.223Z,34.15
2022-11-08T09:15:31.326Z,24.40
2022-11-08T09:17:58.538Z,36.42
2022-11-08T09:20:26.171Z,26.33
2022-11-08T09:22:54.371Z,25.25
2022-11-08T09:25:21.292Z,22.70
2022-11-08T09:27:48.312Z,24.25
2022-11-08T09:30:15.325Z,37.00
2022-11-08T09:35:30.178Z,23.40
2022-11-08T09:37:58.259Z,31.33
2022-11-08T09:40:49.112Z,36.38
2022-11-08T09:43:33.491Z,39.58
2022-11-08T09:46:00.767Z,20.73
2022-11-08T09:48:42.216Z,43.67
2022-11-08T09:51:16.825Z,38.70
2022-11-08T09:53:52.113Z,27.83
2022-11-08T09:56:23.614Z,38.05
2022-11-08T09:59:32.234Z,30.95
2022-11-08T10:01:59.262Z,22.63
2022-11-08T10:04:30.174Z,26.52
2022-11-08T10:07:06.322Z,34.60
2022-11-08T10:10:05.689Z,24.08
2022-11-08T10:13:14.204Z,19.35
2022-11-08T10:16:04.348Z,22.40
2022-11-08T10:18:37.144Z,16.92
2022-11-08T10:21:28.627Z,27.45
2022-11-08T10:24:08.863Z,22.55
2022-11-08T10:26:42.813Z,17.40
2022-11-08T10:29:19.428Z,16.70
2022-11-08T10:31:49.074Z,35.70
2022-11-08T10:34:23.855Z,28.38
2022-11-08T10:36:58.357Z,17.98
2022-11-08T10:39:28.490Z,18.00
2022-11-08T10:42:21.972Z,15.68
2022-11-08T10:44:49.126Z,26.23
2022-11-08T10:47:27.260Z,18.83
2022-11-08T10:49:58.310Z,18.73
2022-11-08T10:52:38.518Z,28.60
2022-11-08T10:55:08.371Z,21.77
2022-11-08T10:57:44.223Z,25.60
2022-11-08T11:00:20.445Z,24.45
2022-11-08T11:03:22.676Z,32.67
2022-11-08T11:06:05.495Z,16.45
2022-11-08T11:08:33.265Z,19.63
2022-11-08T11:11:22.809Z,16.08
2022-11-08T11:14:19.387Z,25.13
2022-11-08T11:17:03.732Z,22.03
2022-11-08T11:19:31.025Z,13.70
2022-11-08T11:22:07.529Z,19.73
2022-11-08T11:24:36.459Z,35.63
2022-11-08T11:27:18.390Z,26.30
2022-11-08T11:29:45.412Z,15.23
2022-11-08T11:32:43.590Z,12.40
2022-11-08T11:35:16.153Z,17.75
2022-11-08T11:37:51.320Z,14.63
2022-11-08T11:40:32.571Z,25.52
2022-11-08T11:43:10.633Z,18.30
2022-11-08T11:46:01.319Z,16.73
2022-11-08T11:48:30.450Z,24.77
2022-11-08T11:51:19.643Z,25.00
2022-11-08T11:53:49.393Z,20.50
2022-11-08T11:56:37.857Z,35.70
2022-11-08T11:59:23.331Z,18.50
2022-11-08T12:02:06.934Z,30.40
2022-11-08T12:04:52.654Z,25.63
2022-11-08T12:07:27.517Z,13.38
2022-11-08T12:10:16.839Z,23.48
2022-11-08T12:13:04.470Z,18.42
2022-11-08T12:15:52.874Z,10.57
2022-11-08T12:18:41.472Z,22.17
2022-11-08T12:21:21.022Z,16.33
2022-11-08T12:24:06.538Z,14.85
2022-11-08T12:26:50.343Z,11.30
2022-11-08T12:29:23.262Z,10.80
2022-11-08T12:32:31.557Z,20.75
2022-11-08T12:35:35.713Z,9.13
2022-11-08T12:38:02.659Z,11.20
2022-11-08T12:40:32.478Z,8.30
2022-11-08T12:43:13.200Z,12.35
2022-11-08T12:45:57.454Z,26.25
2022-11-08T12:48:58.080Z,12.57
2022-11-08T12:51:56.276Z,14.02
2022-11-08T12:54:27.041Z,14.70
2022-11-08T12:56:58.287Z,11.07
2022-11-08T12:59:30.352Z,10.13
2022-11-08T13:02:00.956Z,12.02
2022-11-08T13:05:11.536Z,8.13
2022-11-08T13:08:04.841Z,16.45
2022-11-08T13:10:43.413Z,14.05
2022-11-08T13:13:35.524Z,9.93
2022-11-08T13:16:14.705Z,10.50
2022-11-08T13:18:53.376Z,13.63
2022-11-08T13:21:30.296Z,15.98
2022-11-08T13:24:09.878Z,8.73
2022-11-08T13:26:50.285Z,7.88
2022-11-08T13:29:20.205Z,8.40
2022-11-08T13:31:50.098Z,8.57
2022-11-08T13:34:23.110Z,10.27
2022-11-08T13:37:17.879Z,11.75
2022-11-08T13:40:30.175Z,13.80
2022-11-08T13:43:26.363Z,10.80
2022-11-08T13:45:54.467Z,9.32
2022-11-08T13:48:37.327Z,8.73
2022-11-08T13:51:24.451Z,12.98
2022-11-08T13:53:57.661Z,12.38
2022-11-08T13:56:33.342Z,10.20
2022-11-08T13:59:00.455Z,13.50
2022-11-08T14:01:45.737Z,12.38
2022-11-08T14:04:38.698Z,13.88
2022-11-08T14:07:13.365Z,7.25
2022-11-08T14:09:54.024Z,10.25
2022-11-08T14:12:42.115Z,11.48
2022-11-08T14:15:30.786Z,6.68
2022-11-08T14:18:27.390Z,5.68
2022-11-08T14:20:55.740Z,15.77
2022-11-08T14:23:54.741Z,8.05
2022-11-08T14:26:24.698Z,6.80
2022-11-08T14:28:53.443Z,13.82
2022-11-08T14:31:47.168Z,6.18
2022-11-08T14:34:40.012Z,7.78
2022-11-08T14:37:25.223Z,11.20
2022-11-08T14:39:53.587Z,5.38
2022-11-08T14:42:24.512Z,6.80
2022-11-08T14:44:57.450Z,6.75
2022-11-08T14:47:32.426Z,10.27
2022-11-08T14:49:59.789Z,15.55
2022-11-08T14:52:29.766Z,7.05
2022-11-08T14:55:04.355Z,8.23
2022-11-08T14:57:41.918Z,7.93
2022-11-08T15:00:32.616Z,13.48
2022-11-08T15:03:05.566Z,15.93
2022-11-08T15:05:44.744Z,15.15
2022-11-08T15:08:21.127Z,6.35
2022-11-08T15:11:12.552Z,16.02
2022-11-08T15:13:50.358Z,7.72
2022-11-08T15:16:18.299Z,8.38
2022-11-08T15:18:45.675Z,10.88
2022-11-08T15:21:13.336Z,5.97
2022-11-08T15:23:48.365Z,7.28
2022-11-08T15:26:29.967Z,8.27
2022-11-08T15:29:15.006Z,15.38
2022-11-08T15:31:55.675Z,6.97
2022-11-08T15:34:31.885Z,6.85
2022-11-08T15:36:59.048Z,14.88
2022-11-08T15:39:42.539Z,11.23
2022-11-08T15:42:21.918Z,14.82
2022-11-08T15:45:13.498Z,8.85
2022-11-08T15:47:43.524Z,7.28
2022-11-08T15:50:16.868Z,14.13
2022-11-08T15:52:44.516Z,21.38
2022-11-08T15:55:24.176Z,15.77
2022-11-08T15:57:51.738Z,21.52
2022-11-08T16:00:25.138Z,17.73
2022-11-08T16:02:52.914Z,16.95
2022-11-08T16:05:25.646Z,26.10
2022-11-08T16:07:53.518Z,14.73
2022-11-08T16:10:30.477Z,24.10
2022-11-08T16:13:01.150Z,22.92
2022-11-08T16:15:32.349Z,19.10
2022-11-08T16:18:00.508Z,15.73
2022-11-08T16:20:35.942Z,7.88
2022-11-08T16:23:05.885Z,13.98
2022-11-08T16:25:42.458Z,10.35
2022-11-08T16:28:38.290Z,16.15
2022-11-08T16:31:08.903Z,11.13
2022-11-08T16:33:37.477Z,17.08
2022-11-08T16:36:18.514Z,18.63
2022-11-08T16:38:56.941Z,21.77
2022-11-08T16:41:26.380Z,10.82
2022-11-08T16:43:54.077Z,26.07
2022-11-08T16:46:23.016Z,11.20
2022-11-08T16:48:58.303Z,10.05
2022-11-08T16:51:26.050Z,21.08
2022-11-08T16:53:53.953Z,19.05
2022-11-08T16:56:21.688Z,12.45
2022-11-08T16:58:48.991Z,15.32
2022-11-08T17:01:32.973Z,19.50
2022-11-08T17:04:00.205Z,13.80
2022-11-08T17:06:27.332Z,18.90
2022-11-08T17:08:54.873Z,26.77
2022-11-08T17:11:25.236Z,29.05
2022-11-08T17:13:53.115Z,14.25
2022-11-08T17:16:20.629Z,14.13
2022-11-08T17:21:43.728Z,14.27
2022-11-08T17:24:17.007Z,12.67
2022-11-08T17:26:50.414Z,47.30
2022-11-08T17:29:17.684Z,22.25
2022-11-08T17:31:44.837Z,25.90
2022-11-08T17:34:12.018Z,17.67
2022-11-08T17:36:51.977Z,17.98
2022-11-08T17:39:19.183Z,27.88
2022-11-08T17:41:46.995Z,38.45
2022-11-08T17:44:15.892Z,18.55
2022-11-08T17:46:43.764Z,28.25
2022-11-08T17:49:10.883Z,13.95
2022-11-08T17:51:38.012Z,16.48
2022-11-08T17:54:16.191Z,22.02
2022-11-08T17:56:51.528Z,21.83
2022-11-08T17:59:21.678Z,18.27
2022-11-08T18:01:51.377Z,19.98
2022-11-08T18:04:19.977Z,20.17
2022-11-08T18:06:48.049Z,39.42
2022-11-08T18:09:15.439Z,12.60
2022-11-08T18:11:48.225Z,20.60
2022-11-08T18:14:28.019Z,17.60
2022-11-08T18:19:37.440Z,12.40
2022-11-08T18:22:04.958Z,22.85
2022-11-08T18:24:36.390Z,36.35
2022-11-08T18:27:07.007Z,19.67
2022-11-08T18:29:36.034Z,42.13
2022-11-08T18:32:03.088Z,15.60
2022-11-08T18:34:53.682Z,24.10
2022-11-08T18:37:29.635Z,18.70
2022-11-08T18:39:59.668Z,25.50
2022-11-08T18:42:26.960Z,35.17
2022-11-08T18:44:54.096Z,18.70
2022-11-08T18:50:03.603Z,28.05
2022-11-08T18:52:31.862Z,26.13
2022-11-08T18:57:47.887Z,17.02
2022-11-08T19:00:15.225Z,54.40
2022-11-08T19:02:42.405Z,34.08
2022-11-08T19:05:12.120Z,55.55
2022-11-08T19:07:48.051Z,48.75
2022-11-08T19:10:15.259Z,49.35
2022-11-08T19:12:42.235Z,49.92
2022-11-08T19:15:10.345Z,43.92
2022-11-08T19:17:38.077Z,36.05
2022-11-08T19:20:05.613Z,24.85
2022-11-08T19:22:34.017Z,19.45
2022-11-08T19:25:01.499Z,21.45
2022-11-08T19:27:33.180Z,41.30
2022-11-08T19:30:00.636Z,17.25
2022-11-08T19:32:27.756Z,26.33
2022-11-08T19:34:57.003Z,31.15
2022-11-08T19:37:23.985Z,26.20
2022-11-08T19:39:53.061Z,16.98
2022-11-08T19:42:20.923Z,25.70
2022-11-08T19:44:47.958Z,25.27
2022-11-08T19:47:17.397Z,22.67
2022-11-08T19:49:44.429Z,26.83
2022-11-08T19:52:12.028Z,30.98
2022-11-08T19:54:38.998Z,32.97
2022-11-08T19:57:06.558Z,24.27
2022-11-08T19:59:33.877Z,42.58
2022-11-08T20:02:02.113Z,20.33
2022-11-08T20:04:29.214Z,29.98
2022-11-08T20:06:58.729Z,31.13
2022-11-08T20:09:30.199Z,25.48
2022-11-08T20:11:58.612Z,37.20
2022-11-08T20:14:25.764Z,32.67
2022-11-08T20:16:54.191Z,28.33
2022-11-08T20:19:21.609Z,71.15
2022-11-08T20:21:49.241Z,50.85
2022-11-08T20:24:16.766Z,39.30
2022-11-08T20:26:44.155Z,26.08
2022-11-08T20:29:11.592Z,20.70
2022-11-08T20:31:39.180Z,29.70
2022-11-08T20:34:09.891Z,26.10
2022-11-08T20:36:38.050Z,23.80
2022-11-08T20:39:07.724Z,35.20
2022-11-08T20:41:39.283Z,25.60
2022-11-08T20:44:07.927Z,29.40
2022-11-08T20:46:36.355Z,17.58
2022-11-08T20:49:04.959Z,30.02
2022-11-08T20:51:32.796Z,32.83
2022-11-08T20:54:00.754Z,23.10
2022-11-08T20:56:29.022Z,20.25
2022-11-08T20:58:56.048Z,30.55
2022-11-08T21:01:25.380Z,21.27
2022-11-08T21:03:52.738Z,22.65
2022-11-08T21:06:24.964Z,29.20
2022-11-08T21:09:05.593Z,23.02
2022-11-08T21:11:39.711Z,17.63
2022-11-08T21:14:06.742Z,25.80
2022-11-08T21:16:52.615Z,26.55
2022-11-08T21:19:21.588Z,23.63
2022-11-08T21:21:48.511Z,22.92
2022-11-08T21:24:15.609Z,20.40
2022-11-08T21:26:42.599Z,27.27
2022-11-08T21:29:09.550Z,47.80
2022-11-08T21:31:36.709Z,19.40
2022-11-08T21:34:03.669Z,17.45
2022-11-08T21:36:30.753Z,27.08
2022-11-08T21:38:57.642Z,19.33
2022-11-08T21:41:24.585Z,33.38
2022-11-08T21:43:51.623Z,44.55
2022-11-08T21:46:24.107Z,47.95
2022-11-08T21:48:59.424Z,30.63
2022-11-08T21:51:26.977Z,21.27
2022-11-08T21:53:55.887Z,22.48
2022-11-08T21:56:24.981Z,23.80
2022-11-08T21:58:52.676Z,28.88
2022-11-08T22:01:21.425Z,33.00
2022-11-08T22:03:50.125Z,28.60
2022-11-08T22:06:17.324Z,25.38
2022-11-08T22:08:44.282Z,42.47
2022-11-08T22:11:11.282Z,45.25
2022-11-08T22:13:38.232Z,27.67
2022-11-08T22:16:05.554Z,51.58
2022-11-08T22:21:38.203Z,32.78
2022-11-08T22:24:11.190Z,39.05
2022-11-08T22:26:39.333Z,24.65
2022-11-08T22:29:07.072Z,36.30
2022-11-08T22:31:34.868Z,22.65
2022-11-08T22:34:02.687Z,32.17
2022-11-08T22:36:29.652Z,29.00
2022-11-08T22:38:56.797Z,44.95
2022-11-08T22:41:24.468Z,38.15
2022-11-08T22:43:51.692Z,28.73
2022-11-08T22:46:19.027Z,23.15
2022-11-08T22:48:46.311Z,36.47
2022-11-08T22:51:13.552Z,32.95
2022-11-08T22:53:41.600Z,24.70
2022-11-08T22:56:11.519Z,35.35
2022-11-08T22:58:39.665Z,34.08
2022-11-08T23:01:07.757Z,28.10
2022-11-08T23:03:34.671Z,31.13
2022-11-08T23:06:01.591Z,35.80
2022-11-08T23:08:29.578Z,32.97
2022-11-08T23:11:18.169Z,35.60
2022-11-08T23:14:03.832Z,52.88
2022-11-08T23:16:37.365Z,28.85
2022-11-08T23:19:27.195Z,31.40
2022-11-08T23:22:13.763Z,24.73
2022-11-08T23:24:42.626Z,31.38
2022-11-08T23:27:29.797Z,42.30
2022-11-08T23:30:15.540Z,53.03
2022-11-08T23:32:44.778Z,35.30
2022-11-08T23:35:12.557Z,29.92
2022-11-08T23:37:40.152Z,28.15
2022-11-08T23:40:27.941Z,36.72
2022-11-08T23:43:29.973Z,32.22
2022-11-08T23:45:58.091Z,30.67
2022-11-08T23:48:26.926Z,26.25
2022-11-08T23:50:55.094Z,33.33
2022-11-08T23:53:26.932Z,25.55
2022-11-08T23:55:54.788Z,34.55
2022-11-08T23:58:22.957Z,28.23
